createdAt,value
2022-11-24T00:01:05.856Z,6.90
2022-11-24T00:03:35.604Z,6.90
2022-11-24T00:06:09.645Z,7.00
2022-11-24T00:08:37.256Z,6.90
2022-11-24T00:11:05.318Z,6.90
2022-11-24T00:13:35.660Z,6.90
2022-11-24T00:16:12.021Z,6.90
2022-11-24T00:18:39.846Z,6.90
2022-11-24T00:21:06.987Z,6.90
2022-11-24T00:23:34.672Z,6.90
2022-11-24T00:26:03.526Z,6.90
2022-11-24T00:28:30.529Z,6.90
2022-11-24T00:30:57.847Z,6.90
2022-11-24T00:33:29.155Z,6.90
2022-11-24T00:35:57.642Z,6.90
2022-11-24T00:38:28.192Z,6.90
2022-11-24T00:40:55.120Z,6.90
2022-11-24T00:43:24.823Z,6.90
2022-11-24T00:45:51.990Z,6.90
2022-11-24T00:48:19.270Z,6.90
2022-11-24T00:50:56.003Z,6.90
2022-11-24T00:53:22.995Z,6.90
2022-11-24T00:55:52.658Z,6.90
2022-11-24T00:58:19.907Z,6.90
2022-11-24T01:00:46.885Z,6.90
2022-11-24T01:03:16.491Z,6.90
2022-11-24T01:05:43.467Z,6.90
2022-11-24T01:08:10.397Z,6.90
2022-11-24T01:10:39.112Z,6.90
2022-11-24T01:13:06.026Z,6.90
2022-11-24T01:15:34.596Z,6.90
2022-11-24T01:18:01.493Z,6.90
2022-11-24T01:20:28.458Z,7.00
2022-11-24T01:22:55.239Z,6.90
2022-11-24T01:25:22.264Z,6.90
2022-11-24T01:27:49.137Z,6.90
2022-11-24T01:30:16.047Z,6.90
2022-11-24T01:32:42.932Z,7.00
2022-11-24T01:35:10.108Z,7.00
2022-11-24T01:37:37.321Z,7.00
2022-11-24T01:40:04.595Z,7.00
2022-11-24T01:42:47.294Z,7.00
2022-11-24T01:45:23.209Z,6.90
2022-11-24T01:47:50.055Z,6.90
2022-11-24T01:50:17.823Z,7.00
2022-11-24T01:52:46.849Z,7.00
2022-11-24T01:55:15.969Z,7.00
2022-11-24T01:57:50.197Z,7.00
2022-11-24T02:00:18.777Z,7.00
2022-11-24T02:02:46.008Z,7.00
2022-11-24T02:05:16.938Z,7.00
2022-11-24T02:07:43.961Z,6.90
2022-11-24T02:10:13.334Z,7.00
2022-11-24T02:12:41.275Z,7.00
2022-11-24T02:15:08.652Z,6.90
2022-11-24T02:17:35.757Z,7.00
2022-11-24T02:20:04.673Z,6.90
2022-11-24T02:22:40.922Z,6.90
2022-11-24T02:25:23.004Z,6.90
2022-11-24T02:27:53.891Z,6.90
2022-11-24T02:30:21.367Z,6.90
2022-11-24T02:32:48.356Z,6.80
2022-11-24T02:35:15.591Z,6.80
2022-11-24T02:37:42.610Z,6.80
2022-11-24T02:40:10.028Z,6.80
2022-11-24T02:42:38.639Z,6.80
2022-11-24T02:45:06.346Z,6.80
2022-11-24T02:47:33.184Z,6.80
2022-11-24T02:50:00.093Z,6.80
2022-11-24T02:52:27.057Z,6.80
2022-11-24T02:54:53.884Z,6.80
2022-11-24T02:57:22.290Z,6.80
2022-11-24T02:59:49.179Z,6.80
2022-11-24T03:02:16.113Z,6.80
2022-11-24T03:04:44.684Z,6.80
2022-11-24T03:07:11.643Z,6.80
2022-11-24T03:09:38.666Z,6.80
2022-11-24T03:12:05.692Z,6.80
2022-11-24T03:14:32.977Z,6.70
2022-11-24T03:16:59.990Z,6.70
2022-11-24T03:19:26.932Z,6.70
2022-11-24T03:21:54.946Z,6.80
2022-11-24T03:24:21.841Z,6.80
2022-11-24T03:26:48.738Z,6.80
2022-11-24T03:29:15.574Z,6.80
2022-11-24T03:31:42.812Z,6.80
2022-11-24T03:34:09.776Z,6.80
2022-11-24T03:36:36.625Z,6.90
2022-11-24T03:39:03.714Z,6.90
2022-11-24T03:41:30.661Z,6.90
2022-11-24T03:43:57.665Z,6.90
2022-11-24T03:46:24.793Z,6.90
2022-11-24T03:48:51.819Z,6.90
2022-11-24T03:51:18.749Z,6.90
2022-11-24T03:53:45.656Z,6.90
2022-11-24T03:56:13.496Z,6.90
2022-11-24T03:58:40.407Z,6.90
2022-11-24T04:01:07.484Z,7.00
2022-11-24T04:03:34.350Z,7.00
2022-11-24T04:06:01.316Z,7.00
2022-11-24T04:08:28.536Z,7.00
2022-11-24T04:10:55.453Z,7.00
2022-11-24T04:13:24.278Z,7.00
2022-11-24T04:15:51.564Z,7.00
2022-11-24T04:18:18.535Z,7.10
2022-11-24T04:20:45.820Z,7.10
2022-11-24T04:23:12.890Z,7.10
2022-11-24T04:25:41.477Z,7.00
2022-11-24T04:28:08.808Z,7.00
2022-11-24T04:30:36.245Z,7.00
2022-11-24T04:33:03.116Z,7.10
2022-11-24T04:35:29.987Z,7.10
2022-11-24T04:37:56.819Z,7.10
2022-11-24T04:40:23.774Z,7.10
2022-11-24T04:42:57.039Z,7.10
2022-11-24T04:45:24.258Z,7.10
2022-11-24T04:47:51.112Z,7.10
2022-11-24T04:50:18.009Z,7.10
2022-11-24T04:52:49.972Z,7.10
2022-11-24T04:55:16.718Z,7.10
2022-11-24T04:57:43.955Z,7.10
2022-11-24T05:00:11.250Z,7.20
2022-11-24T05:02:38.195Z,7.20
2022-11-24T05:05:06.226Z,7.20
2022-11-24T05:07:34.522Z,7.20
2022-11-24T05:10:22.139Z,7.20
2022-11-24T05:12:56.598Z,7.20
2022-11-24T05:15:23.409Z,7.20
2022-11-24T05:17:50.223Z,7.20
2022-11-24T05:20:17.183Z,7.20
2022-11-24T05:22:44.175Z,7.20
2022-11-24T05:25:11.023Z,7.20
2022-11-24T05:27:37.801Z,7.20
2022-11-24T05:30:04.950Z,7.20
2022-11-24T05:32:31.743Z,7.20
2022-11-24T05:35:00.523Z,7.20
2022-11-24T05:37:28.208Z,7.20
2022-11-24T05:39:56.288Z,7.20
2022-11-24T05:42:46.542Z,7.20
2022-11-24T05:45:16.140Z,7.30
2022-11-24T05:47:42.978Z,7.30
2022-11-24T05:50:10.719Z,7.30
2022-11-24T05:52:37.804Z,7.30
2022-11-24T05:55:06.631Z,7.30
2022-11-24T05:57:33.918Z,7.30
2022-11-24T06:00:00.917Z,7.40
2022-11-24T06:02:28.031Z,7.40
2022-11-24T06:04:55.186Z,7.40
2022-11-24T06:07:21.956Z,7.40
2022-11-24T06:09:50.130Z,7.40
2022-11-24T06:12:17.326Z,7.40
2022-11-24T06:14:44.551Z,7.40
2022-11-24T06:17:12.893Z,7.30
2022-11-24T06:19:50.548Z,7.30
2022-11-24T06:22:19.243Z,7.30
2022-11-24T06:24:46.624Z,7.30
2022-11-24T06:27:13.717Z,7.30
2022-11-24T06:29:53.043Z,7.20
2022-11-24T06:32:20.313Z,7.20
2022-11-24T06:34:47.120Z,7.20
2022-11-24T06:37:14.103Z,7.20
2022-11-24T06:39:41.138Z,7.20
2022-11-24T06:42:08.111Z,7.20
2022-11-24T06:44:35.235Z,7.20
2022-11-24T06:47:03.426Z,7.20
2022-11-24T06:49:30.673Z,7.20
2022-11-24T06:51:57.737Z,7.20
2022-11-24T06:54:24.596Z,7.20
2022-11-24T06:56:58.372Z,7.20
2022-11-24T06:59:26.596Z,7.20
2022-11-24T07:01:55.789Z,7.20
2022-11-24T07:04:22.981Z,7.20
2022-11-24T07:06:53.313Z,7.20
2022-11-24T07:09:20.342Z,7.20
2022-11-24T07:11:47.247Z,7.20
2022-11-24T07:14:14.262Z,7.20
2022-11-24T07:16:41.576Z,7.30
2022-11-24T07:19:10.205Z,7.20
2022-11-24T07:21:37.242Z,7.20
2022-11-24T07:24:04.326Z,7.20
2022-11-24T07:26:31.500Z,7.20
2022-11-24T07:28:58.442Z,7.20
2022-11-24T07:31:34.845Z,7.20
2022-11-24T07:34:01.790Z,7.20
2022-11-24T07:36:28.989Z,7.20
2022-11-24T07:38:55.818Z,7.20
2022-11-24T07:41:22.764Z,7.20
2022-11-24T07:43:50.609Z,7.20
2022-11-24T07:46:18.911Z,7.20
2022-11-24T07:48:46.559Z,7.20
2022-11-24T07:51:13.925Z,7.20
2022-11-24T07:53:41.095Z,7.20
2022-11-24T07:56:09.884Z,7.20
2022-11-24T07:58:37.320Z,7.20
2022-11-24T08:01:11.889Z,7.20
2022-11-24T08:03:39.339Z,7.20
2022-11-24T08:08:53.635Z,7.20
2022-11-24T08:11:20.592Z,7.30
2022-11-24T08:14:03.051Z,7.30
2022-11-24T08:16:35.786Z,7.30
2022-11-24T08:19:06.436Z,7.30
2022-11-24T08:21:36.644Z,7.30
2022-11-24T08:24:03.676Z,7.40
2022-11-24T08:26:30.505Z,7.40
2022-11-24T08:28:58.209Z,7.40
2022-11-24T08:31:27.414Z,7.50
2022-11-24T08:33:55.576Z,7.50
2022-11-24T08:36:22.893Z,7.50
2022-11-24T08:38:54.715Z,7.50
2022-11-24T08:41:22.058Z,7.50
2022-11-24T08:43:48.843Z,7.60
2022-11-24T08:46:17.332Z,7.60
2022-11-24T08:48:47.139Z,7.60
2022-11-24T08:51:14.880Z,7.70
2022-11-24T08:53:43.776Z,7.70
2022-11-24T08:56:11.378Z,7.70
2022-11-24T08:58:54.407Z,7.70
2022-11-24T09:01:21.421Z,7.70
2022-11-24T09:03:51.033Z,7.80
2022-11-24T09:06:19.400Z,7.80
2022-11-24T09:08:46.193Z,7.80
2022-11-24T09:11:14.505Z,7.90
2022-11-24T09:13:41.789Z,7.90
2022-11-24T09:16:10.260Z,7.90
2022-11-24T09:18:41.940Z,7.90
2022-11-24T09:21:13.408Z,8.00
2022-11-24T09:23:43.709Z,8.00
2022-11-24T09:26:12.327Z,8.00
2022-11-24T09:28:39.188Z,8.00
2022-11-24T09:31:07.191Z,8.10
2022-11-24T09:33:34.380Z,8.10
2022-11-24T09:36:01.689Z,8.10
2022-11-24T09:38:28.892Z,8.10
2022-11-24T09:40:55.969Z,8.10
2022-11-24T09:43:34.739Z,8.20
2022-11-24T09:46:08.802Z,8.20
2022-11-24T09:48:46.900Z,8.20
2022-11-24T09:51:32.277Z,8.30
2022-11-24T09:54:09.605Z,8.20
2022-11-24T09:56:38.558Z,8.30
2022-11-24T09:59:07.189Z,8.30
2022-11-24T10:01:35.781Z,8.30
2022-11-24T10:04:06.288Z,8.30
2022-11-24T10:06:50.295Z,8.40
2022-11-24T10:09:20.288Z,8.30
2022-11-24T10:11:50.234Z,8.40
2022-11-24T10:14:25.527Z,8.40
2022-11-24T10:16:56.940Z,8.50
2022-11-24T10:19:25.646Z,8.50
2022-11-24T10:22:13.796Z,8.40
2022-11-24T10:24:49.798Z,8.50
2022-11-24T10:27:20.932Z,8.50
2022-11-24T10:30:04.986Z,8.60
2022-11-24T10:32:36.813Z,8.60
2022-11-24T10:35:20.833Z,8.70
2022-11-24T10:37:53.685Z,8.70
2022-11-24T10:40:59.540Z,8.80
2022-11-24T10:43:17.897Z,8.90
2022-11-24T10:45:44.951Z,8.90
2022-11-24T10:48:20.552Z,8.90
2022-11-24T10:50:47.372Z,8.90
2022-11-24T10:53:17.355Z,8.80
2022-11-24T10:55:56.453Z,8.90
2022-11-24T10:58:25.034Z,8.90
2022-11-24T11:00:51.819Z,8.90
2022-11-24T11:03:20.683Z,8.90
2022-11-24T11:05:50.580Z,8.90
2022-11-24T11:08:21.792Z,8.90
2022-11-24T11:10:49.972Z,8.90
2022-11-24T11:13:24.223Z,8.90
2022-11-24T11:15:51.383Z,8.90
2022-11-24T11:18:18.925Z,8.90
2022-11-24T11:20:55.583Z,9.00
2022-11-24T11:23:33.535Z,9.00
2022-11-24T11:26:22.783Z,9.00
2022-11-24T11:31:15.398Z,9.00
2022-11-24T11:34:44.034Z,9.00
2022-11-24T11:37:13.192Z,9.00
2022-11-24T11:39:46.940Z,9.00
2022-11-24T11:43:02.062Z,9.00
2022-11-24T11:45:22.820Z,9.10
2022-11-24T11:47:52.781Z,9.10
2022-11-24T11:50:28.384Z,9.20
2022-11-24T11:53:00.947Z,9.20
2022-11-24T11:55:36.968Z,9.20
2022-11-24T11:58:03.762Z,9.20
2022-11-24T12:00:31.916Z,9.20
2022-11-24T12:03:14.145Z,9.20
2022-11-24T12:05:47.162Z,9.20
2022-11-24T12:08:20.508Z,9.30
2022-11-24T12:10:55.963Z,9.30
2022-11-24T12:13:22.727Z,9.40
2022-11-24T12:15:50.705Z,9.40
2022-11-24T12:21:32.421Z,9.50
2022-11-24T12:24:22.718Z,9.50
2022-11-24T12:27:23.374Z,9.50
2022-11-24T12:29:50.462Z,9.50
2022-11-24T12:32:18.116Z,9.50
2022-11-24T12:34:47.940Z,9.50
2022-11-24T12:37:26.516Z,9.60
2022-11-24T12:40:05.876Z,9.60
2022-11-24T12:42:38.734Z,9.60
2022-11-24T12:45:06.349Z,9.60
2022-11-24T12:47:39.416Z,9.60
2022-11-24T12:50:23.895Z,9.60
2022-11-24T12:52:58.658Z,9.60
2022-11-24T12:55:26.646Z,9.60
2022-11-24T12:58:13.283Z,9.60
2022-11-24T13:00:43.203Z,9.70
2022-11-24T13:03:17.851Z,9.70
2022-11-24T13:05:54.084Z,9.70
2022-11-24T13:08:22.559Z,9.70
2022-11-24T13:10:57.089Z,9.70
2022-11-24T13:13:49.741Z,9.80
2022-11-24T13:19:09.746Z,9.80
2022-11-24T13:21:36.540Z,9.80
2022-11-24T13:24:05.265Z,9.90
2022-11-24T13:26:51.793Z,9.90
2022-11-24T13:29:30.711Z,9.90
2022-11-24T13:32:03.285Z,9.90
2022-11-24T13:34:39.314Z,9.90
2022-11-24T13:37:33.589Z,9.90
2022-11-24T13:40:22.635Z,9.90
2022-11-24T13:43:02.198Z,9.90
2022-11-24T13:45:49.237Z,9.90
2022-11-24T13:48:19.296Z,9.90
2022-11-24T13:50:58.546Z,9.90
2022-11-24T13:53:28.564Z,9.90
2022-11-24T13:55:58.098Z,9.90
2022-11-24T13:58:28.129Z,9.90
2022-11-24T14:01:04.108Z,9.90
2022-11-24T14:03:50.974Z,9.90
2022-11-24T14:06:32.924Z,9.90
2022-11-24T14:09:00.898Z,9.90
2022-11-24T14:11:28.420Z,9.80
2022-11-24T14:13:55.326Z,9.80
2022-11-24T14:16:23.701Z,9.80
2022-11-24T14:18:51.505Z,9.80
2022-11-24T14:21:18.632Z,9.80
2022-11-24T14:23:46.135Z,9.80
2022-11-24T14:26:28.900Z,9.80
2022-11-24T14:29:02.641Z,9.90
2022-11-24T14:31:29.432Z,9.80
2022-11-24T14:34:11.503Z,9.80
2022-11-24T14:36:38.648Z,9.80
2022-11-24T14:39:05.883Z,9.80
2022-11-24T14:41:33.685Z,9.80
2022-11-24T14:44:16.288Z,9.80
2022-11-24T14:46:44.521Z,9.80
2022-11-24T14:49:16.883Z,9.80
2022-11-24T14:51:45.168Z,9.80
2022-11-24T14:54:21.499Z,9.70
2022-11-24T14:56:59.603Z,9.80
2022-11-24T14:59:27.324Z,9.80
2022-11-24T15:01:54.502Z,9.70
2022-11-24T15:07:16.702Z,9.70
2022-11-24T15:09:43.545Z,9.70
2022-11-24T15:12:18.523Z,9.80
2022-11-24T15:14:49.342Z,9.80
2022-11-24T15:17:17.488Z,9.70
2022-11-24T15:19:45.628Z,9.80
2022-11-24T15:22:31.426Z,9.80
2022-11-24T15:24:58.161Z,9.80
2022-11-24T15:27:24.937Z,9.80
2022-11-24T15:29:51.690Z,9.70
2022-11-24T15:32:27.392Z,9.70
2022-11-24T15:34:54.351Z,9.70
2022-11-24T15:37:21.327Z,9.70
2022-11-24T15:39:48.152Z,9.70
2022-11-24T15:42:15.449Z,9.70
2022-11-24T15:44:42.633Z,9.70
2022-11-24T15:47:09.644Z,9.60
2022-11-24T15:49:36.933Z,9.70
2022-11-24T15:52:03.934Z,9.70
2022-11-24T15:54:30.765Z,9.60
2022-11-24T15:57:00.395Z,9.60
2022-11-24T15:59:28.022Z,9.60
2022-11-24T16:01:54.919Z,9.60
2022-11-24T16:04:21.718Z,9.60
2022-11-24T16:06:48.597Z,9.50
2022-11-24T16:09:16.731Z,9.50
2022-11-24T16:11:43.942Z,9.40
2022-11-24T16:14:10.986Z,9.40
2022-11-24T16:16:38.007Z,9.30
2022-11-24T16:19:05.001Z,9.30
2022-11-24T16:21:31.858Z,9.20
2022-11-24T16:23:58.676Z,9.10
2022-11-24T16:26:25.490Z,9.10
2022-11-24T16:28:52.459Z,9.00
2022-11-24T16:31:19.852Z,9.00
2022-11-24T16:33:46.878Z,8.90
2022-11-24T16:36:14.017Z,8.90
2022-11-24T16:38:41.108Z,8.80
2022-11-24T16:41:10.320Z,8.70
2022-11-24T16:43:37.528Z,8.70
2022-11-24T16:46:24.146Z,8.60
2022-11-24T16:48:59.607Z,8.60
2022-11-24T16:51:31.405Z,8.50
2022-11-24T16:54:02.044Z,8.50
2022-11-24T16:56:29.292Z,8.50
2022-11-24T16:58:56.135Z,8.40
2022-11-24T17:01:23.359Z,8.40
2022-11-24T17:03:52.931Z,8.30
2022-11-24T17:06:20.094Z,8.30
2022-11-24T17:08:47.654Z,8.20
2022-11-24T17:11:15.554Z,8.20
2022-11-24T17:13:43.240Z,8.10
2022-11-24T17:16:11.459Z,8.10
2022-11-24T17:18:38.903Z,8.10
2022-11-24T17:21:09.768Z,8.10
2022-11-24T17:23:37.393Z,8.00
2022-11-24T17:26:05.598Z,8.00
2022-11-24T17:28:32.365Z,8.00
2022-11-24T17:30:59.374Z,8.00
2022-11-24T17:33:27.967Z,8.00
2022-11-24T17:35:55.970Z,8.00
2022-11-24T17:38:22.870Z,8.00
2022-11-24T17:40:49.698Z,8.00
2022-11-24T17:43:16.517Z,8.00
2022-11-24T17:45:43.513Z,8.00
2022-11-24T17:48:10.292Z,7.90
2022-11-24T17:50:37.870Z,7.90
2022-11-24T17:53:04.680Z,7.90
2022-11-24T17:55:36.647Z,7.90
2022-11-24T17:58:03.512Z,7.80
2022-11-24T18:00:30.351Z,7.80
2022-11-24T18:02:57.714Z,7.80
2022-11-24T18:05:25.569Z,7.70
2022-11-24T18:07:52.645Z,7.70
2022-11-24T18:10:19.884Z,7.70
2022-11-24T18:12:46.741Z,7.70
2022-11-24T18:15:13.507Z,7.70
2022-11-24T18:17:40.353Z,7.70
2022-11-24T18:20:07.468Z,7.70
2022-11-24T18:23:04.069Z,7.60
2022-11-24T18:25:21.365Z,7.60
2022-11-24T18:27:48.319Z,7.60
2022-11-24T18:30:15.312Z,7.60
2022-11-24T18:32:42.164Z,7.60
2022-11-24T18:35:09.142Z,7.50
2022-11-24T18:37:38.996Z,7.50
2022-11-24T18:40:06.278Z,7.50
2022-11-24T18:42:33.052Z,7.50
2022-11-24T18:44:59.939Z,7.50
2022-11-24T18:47:26.788Z,7.40
2022-11-24T18:49:53.565Z,7.40
2022-11-24T18:52:20.568Z,7.40
2022-11-24T18:54:47.501Z,7.40
2022-11-24T18:57:14.467Z,7.40
2022-11-24T18:59:41.412Z,7.40
2022-11-24T19:02:09.686Z,7.40
2022-11-24T19:04:36.846Z,7.40
2022-11-24T19:07:04.054Z,7.40
2022-11-24T19:09:30.835Z,7.40
2022-11-24T19:11:57.580Z,7.40
2022-11-24T19:14:24.359Z,7.40
2022-11-24T19:16:51.430Z,7.40
2022-11-24T19:19:18.510Z,7.40
2022-11-24T19:21:45.296Z,7.40
2022-11-24T19:24:13.306Z,7.40
2022-11-24T19:26:40.575Z,7.50
2022-11-24T19:29:08.167Z,7.50
2022-11-24T19:31:35.832Z,7.60
2022-11-24T19:34:03.455Z,7.60
2022-11-24T19:36:30.388Z,7.60
2022-11-24T19:38:57.841Z,7.60
2022-11-24T19:41:26.507Z,7.70
2022-11-24T19:43:53.700Z,7.70
2022-11-24T19:46:20.975Z,7.70
2022-11-24T19:48:50.258Z,7.70
2022-11-24T19:51:19.686Z,7.70
2022-11-24T19:53:46.693Z,7.70
2022-11-24T19:56:18.154Z,7.70
2022-11-24T19:58:45.087Z,7.70
2022-11-24T20:01:11.888Z,7.70
2022-11-24T20:03:39.516Z,7.70
2022-11-24T20:06:07.314Z,7.60
2022-11-24T20:08:34.944Z,7.60
2022-11-24T20:11:02.798Z,7.60
2022-11-24T20:13:29.650Z,7.60
2022-11-24T20:16:05.576Z,7.60
2022-11-24T20:18:36.368Z,7.50
2022-11-24T20:21:08.460Z,7.50
2022-11-24T20:23:35.635Z,7.50
2022-11-24T20:26:09.643Z,7.50
2022-11-24T20:28:36.800Z,7.40
2022-11-24T20:31:04.753Z,7.40
2022-11-24T20:33:31.673Z,7.40
2022-11-24T20:36:05.770Z,7.40
2022-11-24T20:38:37.406Z,7.40
2022-11-24T20:41:09.372Z,7.40
2022-11-24T20:43:36.726Z,7.40
2022-11-24T20:46:17.026Z,7.40
2022-11-24T20:48:44.321Z,7.30
2022-11-24T20:51:12.584Z,7.30
2022-11-24T20:53:39.440Z,7.30
2022-11-24T20:56:07.652Z,7.30
2022-11-24T20:58:35.617Z,7.30
2022-11-24T21:01:03.841Z,7.30
2022-11-24T21:03:30.993Z,7.20
2022-11-24T21:05:57.860Z,7.20
2022-11-24T21:08:24.599Z,7.20
2022-11-24T21:10:58.863Z,7.10
2022-11-24T21:13:26.195Z,7.10
2022-11-24T21:15:53.392Z,7.10
2022-11-24T21:18:23.562Z,7.10
2022-11-24T21:20:50.561Z,7.10
2022-11-24T21:23:17.475Z,7.10
2022-11-24T21:25:44.204Z,7.10
2022-11-24T21:28:12.916Z,7.10
2022-11-24T21:30:39.791Z,7.10
2022-11-24T21:33:06.887Z,7.10
2022-11-24T21:35:34.204Z,7.10
2022-11-24T21:38:00.985Z,7.10
2022-11-24T21:40:28.239Z,7.10
2022-11-24T21:42:55.340Z,7.10
2022-11-24T21:45:22.211Z,7.00
2022-11-24T21:47:51.217Z,7.00
2022-11-24T21:50:18.026Z,7.00
2022-11-24T21:52:44.750Z,7.00
2022-11-24T21:55:11.521Z,7.00
2022-11-24T21:57:38.551Z,7.00
2022-11-24T22:00:06.505Z,7.00
2022-11-24T22:02:33.492Z,7.00
2022-11-24T22:05:00.284Z,6.90
2022-11-24T22:07:30.647Z,6.90
2022-11-24T22:09:57.389Z,6.90
2022-11-24T22:15:40.491Z,6.90
2022-11-24T22:18:07.283Z,6.90
2022-11-24T22:20:34.185Z,6.90
2022-11-24T22:23:01.043Z,6.90
2022-11-24T22:25:27.848Z,6.90
2022-11-24T22:27:54.607Z,7.00
2022-11-24T22:33:15.879Z,7.00
2022-11-24T22:35:42.720Z,7.00
2022-11-24T22:38:09.657Z,7.00
2022-11-24T22:40:36.801Z,6.90
2022-11-24T22:43:04.056Z,7.00
2022-11-24T22:45:30.905Z,7.00
2022-11-24T22:48:23.288Z,7.00
2022-11-24T22:51:17.326Z,7.00
2022-11-24T22:53:48.608Z,7.00
2022-11-24T22:56:15.821Z,7.00
2022-11-24T22:58:46.319Z,7.00
2022-11-24T23:01:16.846Z,7.00
2022-11-24T23:03:44.119Z,7.00
2022-11-24T23:06:14.345Z,6.90
2022-11-24T23:08:43.364Z,6.90
2022-11-24T23:11:12.148Z,6.90
2022-11-24T23:13:39.492Z,6.90
2022-11-24T23:16:14.697Z,6.90
2022-11-24T23:18:41.904Z,6.90
2022-11-24T23:21:12.791Z,6.90
2022-11-24T23:23:40.084Z,6.90
2022-11-24T23:26:07.924Z,6.80
2022-11-24T23:28:34.947Z,6.80
2022-11-24T23:31:02.747Z,6.80
2022-11-24T23:33:30.029Z,6.80
2022-11-24T23:36:00.004Z,6.80
2022-11-24T23:38:29.998Z,6.80
2022-11-24T23:40:58.312Z,6.80
2022-11-24T23:43:25.350Z,6.80
2022-11-24T23:45:52.323Z,6.80
2022-11-24T23:48:19.275Z,6.80
2022-11-24T23:50:46.051Z,6.80
2022-11-24T23:53:13.155Z,6.80
2022-11-24T23:55:39.866Z,6.80
2022-11-24T23:58:07.231Z,6.80
